sensor_id;sensor_type;location;lat;lon;timestamp;P1;durP1;ratioP1;P2;durP2;ratioP2
22687;SDS011;11511;51.514;7.080;2022-11-11T00:01:57;9.47;;;3.20;;
22687;SDS011;11511;51.514;7.080;2022-11-11T00:04:41;7.05;;;2.95;;
22687;SDS011;11511;51.514;7.080;2022-11-11T00:07:26;9.83;;;3.40;;
22687;SDS011;11511;51.514;7.080;2022-11-11T00:10:10;6.05;;;3.03;;
22687;SDS011;11511;51.514;7.080;2022-11-11T00:13:00;6.50;;;3.15;;
22687;SDS011;11511;51.514;7.080;2022-11-11T00:15:45;8.50;;;3.28;;
22687;SDS011;11511;51.514;7.080;2022-11-11T00:18:30;5.70;;;3.10;;
22687;SDS011;11511;51.514;7.080;2022-11-11T00:21:33;8.27;;;3.47;;
22687;SDS011;11511;51.514;7.080;2022-11-11T00:24:36;7.05;;;3.15;;
22687;SDS011;11511;51.514;7.080;2022-11-11T00:27:39;5.70;;;3.28;;
22687;SDS011;11511;51.514;7.080;2022-11-11T00:30:23;9.20;;;3.35;;
22687;SDS011;11511;51.514;7.080;2022-11-11T00:33:08;8.30;;;3.65;;
22687;SDS011;11511;51.514;7.080;2022-11-11T00:35:53;6.47;;;3.67;;
22687;SDS011;11511;51.514;7.080;2022-11-11T00:38:38;9.93;;;4.00;;
22687;SDS011;11511;51.514;7.080;2022-11-11T00:41:28;9.18;;;3.83;;
22687;SDS011;11511;51.514;7.080;2022-11-11T00:44:13;9.77;;;3.42;;
22687;SDS011;11511;51.514;7.080;2022-11-11T00:46:57;11.00;;;3.80;;
22687;SDS011;11511;51.514;7.080;2022-11-11T00:50:00;6.22;;;3.75;;
22687;SDS011;11511;51.514;7.080;2022-11-11T00:53:07;7.88;;;3.08;;
22687;SDS011;11511;51.514;7.080;2022-11-11T00:55:54;9.00;;;3.58;;
22687;SDS011;11511;51.514;7.080;2022-11-11T00:58:40;11.30;;;4.13;;
22687;SDS011;11511;51.514;7.080;2022-11-11T01:01:25;10.85;;;3.85;;
22687;SDS011;11511;51.514;7.080;2022-11-11T01:04:09;8.52;;;3.40;;
22687;SDS011;11511;51.514;7.080;2022-11-11T01:06:53;5.13;;;3.40;;
22687;SDS011;11511;51.514;7.080;2022-11-11T01:09:38;7.88;;;3.53;;
22687;SDS011;11511;51.514;7.080;2022-11-11T01:12:22;7.88;;;3.65;;
22687;SDS011;11511;51.514;7.080;2022-11-11T01:15:07;7.85;;;3.25;;
22687;SDS011;11511;51.514;7.080;2022-11-11T01:17:51;7.20;;;3.35;;
22687;SDS011;11511;51.514;7.080;2022-11-11T01:20:36;8.27;;;3.85;;
22687;SDS011;11511;51.514;7.080;2022-11-11T01:23:22;6.38;;;3.47;;
22687;SDS011;11511;51.514;7.080;2022-11-11T01:26:08;5.53;;;3.10;;
22687;SDS011;11511;51.514;7.080;2022-11-11T01:28:57;8.40;;;3.47;;
22687;SDS011;11511;51.514;7.080;2022-11-11T01:31:41;7.13;;;3.20;;
22687;SDS011;11511;51.514;7.080;2022-11-11T01:34:26;7.43;;;3.63;;
22687;SDS011;11511;51.514;7.080;2022-11-11T01:37:11;5.93;;;3.30;;
22687;SDS011;11511;51.514;7.080;2022-11-11T01:39:58;8.02;;;3.30;;
22687;SDS011;11511;51.514;7.080;2022-11-11T01:42:46;10.95;;;3.40;;
22687;SDS011;11511;51.514;7.080;2022-11-11T01:48:40;6.90;;;3.40;;
22687;SDS011;11511;51.514;7.080;2022-11-11T01:51:53;8.45;;;3.17;;
22687;SDS011;11511;51.514;7.080;2022-11-11T01:55:06;4.85;;;2.97;;
22687;SDS011;11511;51.514;7.080;2022-11-11T01:58:05;9.35;;;3.30;;
22687;SDS011;11511;51.514;7.080;2022-11-11T02:00:58;6.47;;;3.22;;
22687;SDS011;11511;51.514;7.080;2022-11-11T02:03:43;10.30;;;3.80;;
22687;SDS011;11511;51.514;7.080;2022-11-11T02:06:52;5.90;;;2.83;;
22687;SDS011;11511;51.514;7.080;2022-11-11T02:09:40;7.95;;;3.20;;
22687;SDS011;11511;51.514;7.080;2022-11-11T02:12:28;6.80;;;3.33;;
22687;SDS011;11511;51.514;7.080;2022-11-11T02:15:31;6.05;;;2.92;;
22687;SDS011;11511;51.514;7.080;2022-11-11T02:18:18;4.95;;;2.92;;
22687;SDS011;11511;51.514;7.080;2022-11-11T02:21:04;6.63;;;3.08;;
22687;SDS011;11511;51.514;7.080;2022-11-11T02:27:07;5.47;;;2.90;;
22687;SDS011;11511;51.514;7.080;2022-11-11T02:29:59;8.18;;;3.10;;
22687;SDS011;11511;51.514;7.080;2022-11-11T02:32:47;6.45;;;2.83;;
22687;SDS011;11511;51.514;7.080;2022-11-11T02:35:35;6.28;;;2.80;;
22687;SDS011;11511;51.514;7.080;2022-11-11T02:38:23;6.53;;;3.35;;
22687;SDS011;11511;51.514;7.080;2022-11-11T02:41:09;8.57;;;3.30;;
22687;SDS011;11511;51.514;7.080;2022-11-11T02:44:14;6.40;;;3.00;;
22687;SDS011;11511;51.514;7.080;2022-11-11T02:46:59;6.75;;;3.40;;
22687;SDS011;11511;51.514;7.080;2022-11-11T02:49:46;6.57;;;3.15;;
22687;SDS011;11511;51.514;7.080;2022-11-11T02:52:32;7.15;;;3.10;;
22687;SDS011;11511;51.514;7.080;2022-11-11T02:55:19;9.43;;;3.97;;
22687;SDS011;11511;51.514;7.080;2022-11-11T02:58:06;6.22;;;3.33;;
22687;SDS011;11511;51.514;7.080;2022-11-11T03:00:53;8.10;;;3.53;;
22687;SDS011;11511;51.514;7.080;2022-11-11T03:03:42;7.30;;;3.40;;
22687;SDS011;11511;51.514;7.080;2022-11-11T03:06:27;6.32;;;3.30;;
22687;SDS011;11511;51.514;7.080;2022-11-11T03:09:14;8.20;;;2.97;;
22687;SDS011;11511;51.514;7.080;2022-11-11T03:12:01;7.35;;;3.10;;
22687;SDS011;11511;51.514;7.080;2022-11-11T03:14:46;6.22;;;3.00;;
22687;SDS011;11511;51.514;7.080;2022-11-11T03:17:32;5.60;;;3.42;;
22687;SDS011;11511;51.514;7.080;2022-11-11T03:20:24;9.80;;;3.38;;
22687;SDS011;11511;51.514;7.080;2022-11-11T03:23:29;4.60;;;3.17;;
22687;SDS011;11511;51.514;7.080;2022-11-11T03:26:15;10.35;;;3.00;;
22687;SDS011;11511;51.514;7.080;2022-11-11T03:29:02;8.27;;;3.30;;
22687;SDS011;11511;51.514;7.080;2022-11-11T03:31:47;7.40;;;3.08;;
22687;SDS011;11511;51.514;7.080;2022-11-11T03:34:32;6.17;;;3.20;;
22687;SDS011;11511;51.514;7.080;2022-11-11T03:37:16;9.13;;;3.17;;
22687;SDS011;11511;51.514;7.080;2022-11-11T03:40:19;5.55;;;3.10;;
22687;SDS011;11511;51.514;7.080;2022-11-11T03:43:04;6.27;;;3.30;;
22687;SDS011;11511;51.514;7.080;2022-11-11T03:45:49;4.85;;;3.40;;
22687;SDS011;11511;51.514;7.080;2022-11-11T03:48:37;6.03;;;3.33;;
22687;SDS011;11511;51.514;7.080;2022-11-11T03:51:21;7.72;;;3.83;;
22687;SDS011;11511;51.514;7.080;2022-11-11T03:54:05;5.45;;;3.63;;
22687;SDS011;11511;51.514;7.080;2022-11-11T03:56:49;6.85;;;3.30;;
22687;SDS011;11511;51.514;7.080;2022-11-11T03:59:33;6.70;;;3.45;;
22687;SDS011;11511;51.514;7.080;2022-11-11T04:02:18;9.30;;;3.90;;
22687;SDS011;11511;51.514;7.080;2022-11-11T04:05:21;7.80;;;3.45;;
22687;SDS011;11511;51.514;7.080;2022-11-11T04:08:23;5.15;;;3.20;;
22687;SDS011;11511;51.514;7.080;2022-11-11T04:11:27;6.90;;;3.88;;
22687;SDS011;11511;51.514;7.080;2022-11-11T04:14:14;6.45;;;3.10;;
22687;SDS011;11511;51.514;7.080;2022-11-11T04:17:17;6.93;;;3.67;;
22687;SDS011;11511;51.514;7.080;2022-11-11T04:20:02;6.70;;;3.50;;
22687;SDS011;11511;51.514;7.080;2022-11-11T04:23:06;7.13;;;3.72;;
22687;SDS011;11511;51.514;7.080;2022-11-11T04:25:50;6.35;;;3.83;;
22687;SDS011;11511;51.514;7.080;2022-11-11T04:28:36;5.97;;;3.88;;
22687;SDS011;11511;51.514;7.080;2022-11-11T04:31:39;5.80;;;3.67;;
22687;SDS011;11511;51.514;7.080;2022-11-11T04:34:47;10.88;;;3.58;;
22687;SDS011;11511;51.514;7.080;2022-11-11T04:37:34;7.57;;;3.20;;
22687;SDS011;11511;51.514;7.080;2022-11-11T04:40:20;6.45;;;3.67;;
22687;SDS011;11511;51.514;7.080;2022-11-11T04:43:23;7.00;;;3.30;;
22687;SDS011;11511;51.514;7.080;2022-11-11T04:46:07;11.68;;;3.53;;
22687;SDS011;11511;51.514;7.080;2022-11-11T04:48:51;6.57;;;3.33;;
22687;SDS011;11511;51.514;7.080;2022-11-11T04:51:35;8.57;;;3.30;;
22687;SDS011;11511;51.514;7.080;2022-11-11T04:54:38;8.30;;;3.05;;
22687;SDS011;11511;51.514;7.080;2022-11-11T04:57:44;8.60;;;3.63;;
22687;SDS011;11511;51.514;7.080;2022-11-11T05:00:30;6.82;;;3.28;;
22687;SDS011;11511;51.514;7.080;2022-11-11T05:03:15;8.90;;;3.13;;
22687;SDS011;11511;51.514;7.080;2022-11-11T05:09:03;6.25;;;3.03;;
22687;SDS011;11511;51.514;7.080;2022-11-11T05:11:47;3.65;;;2.83;;
22687;SDS011;11511;51.514;7.080;2022-11-11T05:14:31;4.65;;;2.88;;
22687;SDS011;11511;51.514;7.080;2022-11-11T05:17:34;6.55;;;3.00;;
22687;SDS011;11511;51.514;7.080;2022-11-11T05:20:37;7.18;;;2.92;;
22687;SDS011;11511;51.514;7.080;2022-11-11T05:23:40;7.43;;;3.60;;
22687;SDS011;11511;51.514;7.080;2022-11-11T05:26:43;6.65;;;3.30;;
22687;SDS011;11511;51.514;7.080;2022-11-11T05:29:27;5.13;;;3.15;;
22687;SDS011;11511;51.514;7.080;2022-11-11T05:32:15;5.85;;;3.22;;
22687;SDS011;11511;51.514;7.080;2022-11-11T05:35:01;5.95;;;3.17;;
22687;SDS011;11511;51.514;7.080;2022-11-11T05:37:46;4.70;;;3.00;;
22687;SDS011;11511;51.514;7.080;2022-11-11T05:40:51;6.97;;;3.13;;
22687;SDS011;11511;51.514;7.080;2022-11-11T05:43:38;7.05;;;3.10;;
22687;SDS011;11511;51.514;7.080;2022-11-11T05:46:22;5.03;;;3.08;;
22687;SDS011;11511;51.514;7.080;2022-11-11T05:49:06;5.60;;;2.95;;
22687;SDS011;11511;51.514;7.080;2022-11-11T05:52:00;6.13;;;3.13;;
22687;SDS011;11511;51.514;7.080;2022-11-11T05:54:45;5.00;;;3.10;;
22687;SDS011;11511;51.514;7.080;2022-11-11T05:57:29;5.70;;;3.10;;
22687;SDS011;11511;51.514;7.080;2022-11-11T06:00:15;7.27;;;3.53;;
22687;SDS011;11511;51.514;7.080;2022-11-11T06:03:03;8.77;;;3.38;;
22687;SDS011;11511;51.514;7.080;2022-11-11T06:05:49;5.40;;;3.20;;
22687;SDS011;11511;51.514;7.080;2022-11-11T06:08:34;3.83;;;2.85;;
22687;SDS011;11511;51.514;7.080;2022-11-11T06:11:19;8.07;;;3.30;;
22687;SDS011;11511;51.514;7.080;2022-11-11T06:14:03;5.17;;;3.30;;
22687;SDS011;11511;51.514;7.080;2022-11-11T06:16:48;5.30;;;2.97;;
22687;SDS011;11511;51.514;7.080;2022-11-11T06:19:32;5.38;;;3.00;;
22687;SDS011;11511;51.514;7.080;2022-11-11T06:22:17;6.23;;;3.50;;
22687;SDS011;11511;51.514;7.080;2022-11-11T06:25:31;6.20;;;3.08;;
22687;SDS011;11511;51.514;7.080;2022-11-11T06:28:35;5.93;;;3.20;;
22687;SDS011;11511;51.514;7.080;2022-11-11T06:31:21;9.82;;;3.65;;
22687;SDS011;11511;51.514;7.080;2022-11-11T06:34:07;5.50;;;3.33;;
22687;SDS011;11511;51.514;7.080;2022-11-11T06:36:52;6.95;;;3.72;;
22687;SDS011;11511;51.514;7.080;2022-11-11T06:39:36;5.27;;;3.07;;
22687;SDS011;11511;51.514;7.080;2022-11-11T06:42:21;6.85;;;3.90;;
22687;SDS011;11511;51.514;7.080;2022-11-11T06:45:05;5.68;;;3.67;;
22687;SDS011;11511;51.514;7.080;2022-11-11T06:47:50;9.43;;;3.88;;
22687;SDS011;11511;51.514;7.080;2022-11-11T06:50:35;6.63;;;3.55;;
22687;SDS011;11511;51.514;7.080;2022-11-11T06:53:19;6.03;;;3.80;;
22687;SDS011;11511;51.514;7.080;2022-11-11T06:56:04;5.57;;;3.50;;
22687;SDS011;11511;51.514;7.080;2022-11-11T06:58:50;7.72;;;3.80;;
22687;SDS011;11511;51.514;7.080;2022-11-11T07:01:34;10.35;;;4.03;;
22687;SDS011;11511;51.514;7.080;2022-11-11T07:04:19;9.73;;;4.00;;
22687;SDS011;11511;51.514;7.080;2022-11-11T07:07:03;5.70;;;3.67;;
22687;SDS011;11511;51.514;7.080;2022-11-11T07:09:48;9.57;;;3.67;;
22687;SDS011;11511;51.514;7.080;2022-11-11T07:12:32;6.10;;;3.87;;
22687;SDS011;11511;51.514;7.080;2022-11-11T07:15:17;7.50;;;3.97;;
22687;SDS011;11511;51.514;7.080;2022-11-11T07:18:01;7.27;;;4.17;;
22687;SDS011;11511;51.514;7.080;2022-11-11T07:20:46;7.15;;;3.55;;
22687;SDS011;11511;51.514;7.080;2022-11-11T07:23:30;8.50;;;3.95;;
22687;SDS011;11511;51.514;7.080;2022-11-11T07:26:15;5.57;;;3.70;;
22687;SDS011;11511;51.514;7.080;2022-11-11T07:28:59;4.50;;;3.60;;
22687;SDS011;11511;51.514;7.080;2022-11-11T07:31:43;7.97;;;3.77;;
22687;SDS011;11511;51.514;7.080;2022-11-11T07:34:28;7.03;;;4.10;;
22687;SDS011;11511;51.514;7.080;2022-11-11T07:37:12;5.68;;;3.88;;
22687;SDS011;11511;51.514;7.080;2022-11-11T07:39:57;8.27;;;4.30;;
22687;SDS011;11511;51.514;7.080;2022-11-11T07:42:41;6.53;;;3.53;;
22687;SDS011;11511;51.514;7.080;2022-11-11T07:45:26;7.57;;;3.60;;
22687;SDS011;11511;51.514;7.080;2022-11-11T07:48:10;8.90;;;3.58;;
22687;SDS011;11511;51.514;7.080;2022-11-11T07:50:54;8.80;;;3.67;;
22687;SDS011;11511;51.514;7.080;2022-11-11T07:53:39;6.15;;;3.70;;
22687;SDS011;11511;51.514;7.080;2022-11-11T07:56:23;5.88;;;3.50;;
22687;SDS011;11511;51.514;7.080;2022-11-11T07:59:07;5.05;;;3.13;;
22687;SDS011;11511;51.514;7.080;2022-11-11T08:01:51;6.60;;;3.40;;
22687;SDS011;11511;51.514;7.080;2022-11-11T08:04:36;6.28;;;3.13;;
22687;SDS011;11511;51.514;7.080;2022-11-11T08:07:20;10.52;;;3.45;;
22687;SDS011;11511;51.514;7.080;2022-11-11T08:10:04;5.40;;;2.85;;
22687;SDS011;11511;51.514;7.080;2022-11-11T08:12:52;5.80;;;3.22;;
22687;SDS011;11511;51.514;7.080;2022-11-11T08:15:56;7.18;;;3.40;;
22687;SDS011;11511;51.514;7.080;2022-11-11T08:18:40;7.75;;;3.00;;
22687;SDS011;11511;51.514;7.080;2022-11-11T08:21:25;5.55;;;2.67;;
22687;SDS011;11511;51.514;7.080;2022-11-11T08:24:09;5.10;;;3.00;;
22687;SDS011;11511;51.514;7.080;2022-11-11T08:26:54;7.53;;;2.83;;
22687;SDS011;11511;51.514;7.080;2022-11-11T08:29:38;5.93;;;2.70;;
22687;SDS011;11511;51.514;7.080;2022-11-11T08:32:23;5.47;;;2.72;;
22687;SDS011;11511;51.514;7.080;2022-11-11T08:35:07;5.10;;;2.55;;
22687;SDS011;11511;51.514;7.080;2022-11-11T08:37:52;5.70;;;3.03;;
22687;SDS011;11511;51.514;7.080;2022-11-11T08:40:37;3.97;;;2.65;;
22687;SDS011;11511;51.514;7.080;2022-11-11T08:43:21;5.43;;;2.92;;
22687;SDS011;11511;51.514;7.080;2022-11-11T08:46:06;5.72;;;2.80;;
22687;SDS011;11511;51.514;7.080;2022-11-11T08:48:50;8.57;;;2.50;;
22687;SDS011;11511;51.514;7.080;2022-11-11T08:51:35;8.43;;;2.90;;
22687;SDS011;11511;51.514;7.080;2022-11-11T08:54:19;6.40;;;2.70;;
22687;SDS011;11511;51.514;7.080;2022-11-11T08:57:03;5.97;;;2.70;;
22687;SDS011;11511;51.514;7.080;2022-11-11T08:59:47;7.68;;;2.40;;
22687;SDS011;11511;51.514;7.080;2022-11-11T09:02:32;3.20;;;2.00;;
22687;SDS011;11511;51.514;7.080;2022-11-11T09:05:16;5.03;;;2.40;;
22687;SDS011;11511;51.514;7.080;2022-11-11T09:08:01;5.00;;;2.30;;
22687;SDS011;11511;51.514;7.080;2022-11-11T09:13:30;5.18;;;2.58;;
22687;SDS011;11511;51.514;7.080;2022-11-11T09:16:15;6.68;;;2.60;;
22687;SDS011;11511;51.514;7.080;2022-11-11T09:19:00;5.85;;;2.35;;
22687;SDS011;11511;51.514;7.080;2022-11-11T09:21:44;4.63;;;1.80;;
22687;SDS011;11511;51.514;7.080;2022-11-11T09:24:28;3.63;;;2.08;;
22687;SDS011;11511;51.514;7.080;2022-11-11T09:27:13;3.45;;;1.75;;
22687;SDS011;11511;51.514;7.080;2022-11-11T09:29:57;3.45;;;1.83;;
22687;SDS011;11511;51.514;7.080;2022-11-11T09:32:41;2.38;;;1.52;;
22687;SDS011;11511;51.514;7.080;2022-11-11T09:35:26;4.53;;;1.70;;
22687;SDS011;11511;51.514;7.080;2022-11-11T09:38:10;2.97;;;1.60;;
22687;SDS011;11511;51.514;7.080;2022-11-11T09:41:12;5.05;;;2.00;;
22687;SDS011;11511;51.514;7.080;2022-11-11T09:44:01;3.58;;;1.50;;
22687;SDS011;11511;51.514;7.080;2022-11-11T09:46:53;4.18;;;1.60;;
22687;SDS011;11511;51.514;7.080;2022-11-11T09:49:56;3.85;;;1.50;;
22687;SDS011;11511;51.514;7.080;2022-11-11T09:52:56;5.82;;;1.63;;
22687;SDS011;11511;51.514;7.080;2022-11-11T09:55:57;4.82;;;1.67;;
22687;SDS011;11511;51.514;7.080;2022-11-11T09:58:51;2.92;;;1.65;;
22687;SDS011;11511;51.514;7.080;2022-11-11T10:01:43;3.63;;;1.50;;
22687;SDS011;11511;51.514;7.080;2022-11-11T10:04:54;3.88;;;1.63;;
22687;SDS011;11511;51.514;7.080;2022-11-11T10:07:49;3.35;;;1.50;;
22687;SDS011;11511;51.514;7.080;2022-11-11T10:10:45;2.92;;;1.50;;
22687;SDS011;11511;51.514;7.080;2022-11-11T10:13:32;1.58;;;1.10;;
22687;SDS011;11511;51.514;7.080;2022-11-11T10:19:44;2.88;;;1.33;;
22687;SDS011;11511;51.514;7.080;2022-11-11T10:22:53;3.67;;;1.40;;
22687;SDS011;11511;51.514;7.080;2022-11-11T10:25:54;2.13;;;1.30;;
22687;SDS011;11511;51.514;7.080;2022-11-11T10:28:39;1.90;;;1.17;;
22687;SDS011;11511;51.514;7.080;2022-11-11T10:31:26;3.00;;;1.40;;
22687;SDS011;11511;51.514;7.080;2022-11-11T10:34:11;2.10;;;1.10;;
22687;SDS011;11511;51.514;7.080;2022-11-11T10:37:00;3.90;;;1.58;;
22687;SDS011;11511;51.514;7.080;2022-11-11T10:39:57;2.00;;;1.10;;
22687;SDS011;11511;51.514;7.080;2022-11-11T10:42:49;3.97;;;1.38;;
22687;SDS011;11511;51.514;7.080;2022-11-11T10:45:38;4.80;;;1.40;;
22687;SDS011;11511;51.514;7.080;2022-11-11T10:48:31;2.15;;;1.20;;
22687;SDS011;11511;51.514;7.080;2022-11-11T10:51:17;2.30;;;1.30;;
22687;SDS011;11511;51.514;7.080;2022-11-11T10:54:04;2.80;;;1.23;;
22687;SDS011;11511;51.514;7.080;2022-11-11T10:56:57;3.83;;;1.17;;
22687;SDS011;11511;51.514;7.080;2022-11-11T10:59:56;2.00;;;1.30;;
22687;SDS011;11511;51.514;7.080;2022-11-11T11:02:56;2.38;;;1.40;;
22687;SDS011;11511;51.514;7.080;2022-11-11T11:08:45;3.38;;;1.35;;
22687;SDS011;11511;51.514;7.080;2022-11-11T11:11:36;2.47;;;1.30;;
22687;SDS011;11511;51.514;7.080;2022-11-11T11:14:28;2.60;;;1.33;;
22687;SDS011;11511;51.514;7.080;2022-11-11T11:17:17;2.53;;;1.23;;
22687;SDS011;11511;51.514;7.080;2022-11-11T11:20:07;1.90;;;1.30;;
22687;SDS011;11511;51.514;7.080;2022-11-11T11:22:59;3.67;;;1.63;;
22687;SDS011;11511;51.514;7.080;2022-11-11T11:25:50;2.60;;;1.20;;
22687;SDS011;11511;51.514;7.080;2022-11-11T11:28:55;2.40;;;1.20;;
22687;SDS011;11511;51.514;7.080;2022-11-11T11:31:41;4.30;;;1.20;;
22687;SDS011;11511;51.514;7.080;2022-11-11T11:34:41;3.50;;;1.20;;
22687;SDS011;11511;51.514;7.080;2022-11-11T11:37:27;2.10;;;1.20;;
22687;SDS011;11511;51.514;7.080;2022-11-11T11:40:12;2.05;;;1.20;;
22687;SDS011;11511;51.514;7.080;2022-11-11T11:42:56;2.35;;;1.20;;
22687;SDS011;11511;51.514;7.080;2022-11-11T11:45:41;2.83;;;1.37;;
22687;SDS011;11511;51.514;7.080;2022-11-11T11:48:34;3.60;;;1.30;;
22687;SDS011;11511;51.514;7.080;2022-11-11T11:57:44;2.83;;;1.30;;
22687;SDS011;11511;51.514;7.080;2022-11-11T12:00:43;4.45;;;1.17;;
22687;SDS011;11511;51.514;7.080;2022-11-11T12:04:05;2.33;;;1.20;;
22687;SDS011;11511;51.514;7.080;2022-11-11T12:07:11;2.72;;;1.30;;
22687;SDS011;11511;51.514;7.080;2022-11-11T12:10:02;1.85;;;1.20;;
22687;SDS011;11511;51.514;7.080;2022-11-11T12:16:13;1.58;;;1.10;;
22687;SDS011;11511;51.514;7.080;2022-11-11T12:22:41;1.35;;;0.93;;
22687;SDS011;11511;51.514;7.080;2022-11-11T12:29:11;4.78;;;1.20;;
22687;SDS011;11511;51.514;7.080;2022-11-11T12:32:06;2.25;;;1.10;;
22687;SDS011;11511;51.514;7.080;2022-11-11T12:35:16;2.72;;;1.10;;
22687;SDS011;11511;51.514;7.080;2022-11-11T12:44:11;3.45;;;1.20;;
22687;SDS011;11511;51.514;7.080;2022-11-11T12:50:20;2.15;;;1.20;;
22687;SDS011;11511;51.514;7.080;2022-11-11T13:05:24;4.88;;;1.45;;
22687;SDS011;11511;51.514;7.080;2022-11-11T13:17:23;4.40;;;1.25;;
22687;SDS011;11511;51.514;7.080;2022-11-11T13:23:11;2.35;;;1.00;;
22687;SDS011;11511;51.514;7.080;2022-11-11T13:25:57;2.42;;;1.10;;
22687;SDS011;11511;51.514;7.080;2022-11-11T13:28:46;3.25;;;1.30;;
22687;SDS011;11511;51.514;7.080;2022-11-11T13:31:36;4.15;;;1.10;;
22687;SDS011;11511;51.514;7.080;2022-11-11T13:34:23;2.03;;;1.10;;
22687;SDS011;11511;51.514;7.080;2022-11-11T13:37:17;5.30;;;1.33;;
22687;SDS011;11511;51.514;7.080;2022-11-11T13:40:07;3.72;;;1.20;;
22687;SDS011;11511;51.514;7.080;2022-11-11T13:43:13;2.60;;;1.20;;
22687;SDS011;11511;51.514;7.080;2022-11-11T13:46:01;1.73;;;1.35;;
22687;SDS011;11511;51.514;7.080;2022-11-11T13:48:48;1.83;;;1.17;;
22687;SDS011;11511;51.514;7.080;2022-11-11T13:51:34;2.53;;;1.20;;
22687;SDS011;11511;51.514;7.080;2022-11-11T13:54:23;2.58;;;1.25;;
22687;SDS011;11511;51.514;7.080;2022-11-11T13:57:19;3.58;;;1.30;;
22687;SDS011;11511;51.514;7.080;2022-11-11T14:00:27;2.92;;;1.30;;
22687;SDS011;11511;51.514;7.080;2022-11-11T14:08:59;3.15;;;1.42;;
22687;SDS011;11511;51.514;7.080;2022-11-11T14:11:44;2.78;;;1.30;;
22687;SDS011;11511;51.514;7.080;2022-11-11T14:17:19;2.28;;;1.52;;
22687;SDS011;11511;51.514;7.080;2022-11-11T14:26:24;4.82;;;1.50;;
22687;SDS011;11511;51.514;7.080;2022-11-11T14:29:15;5.60;;;1.40;;
22687;SDS011;11511;51.514;7.080;2022-11-11T14:38:19;2.85;;;1.83;;
22687;SDS011;11511;51.514;7.080;2022-11-11T14:49:56;5.53;;;2.30;;
22687;SDS011;11511;51.514;7.080;2022-11-11T14:52:43;4.13;;;1.75;;
22687;SDS011;11511;51.514;7.080;2022-11-11T14:55:35;3.35;;;1.88;;
22687;SDS011;11511;51.514;7.080;2022-11-11T14:58:26;4.82;;;1.92;;
22687;SDS011;11511;51.514;7.080;2022-11-11T15:01:17;3.53;;;1.90;;
22687;SDS011;11511;51.514;7.080;2022-11-11T15:04:04;3.55;;;1.88;;
22687;SDS011;11511;51.514;7.080;2022-11-11T15:07:00;6.15;;;2.03;;
22687;SDS011;11511;51.514;7.080;2022-11-11T15:09:56;2.75;;;1.80;;
22687;SDS011;11511;51.514;7.080;2022-11-11T15:19:46;3.17;;;2.08;;
22687;SDS011;11511;51.514;7.080;2022-11-11T15:37:39;5.38;;;2.72;;
22687;SDS011;11511;51.514;7.080;2022-11-11T15:40:25;6.78;;;3.22;;
22687;SDS011;11511;51.514;7.080;2022-11-11T15:43:21;6.65;;;3.03;;
22687;SDS011;11511;51.514;7.080;2022-11-11T15:46:19;4.50;;;2.78;;
22687;SDS011;11511;51.514;7.080;2022-11-11T15:49:12;6.45;;;2.80;;
22687;SDS011;11511;51.514;7.080;2022-11-11T15:51:57;5.97;;;3.13;;
22687;SDS011;11511;51.514;7.080;2022-11-11T15:54:42;6.57;;;3.50;;
22687;SDS011;11511;51.514;7.080;2022-11-11T16:03:14;7.93;;;3.35;;
22687;SDS011;11511;51.514;7.080;2022-11-11T16:06:01;8.10;;;3.97;;
22687;SDS011;11511;51.514;7.080;2022-11-11T16:08:49;6.47;;;4.10;;
22687;SDS011;11511;51.514;7.080;2022-11-11T16:11:37;8.30;;;3.78;;
22687;SDS011;11511;51.514;7.080;2022-11-11T16:14:24;8.07;;;3.42;;
22687;SDS011;11511;51.514;7.080;2022-11-11T16:17:15;7.13;;;3.40;;
22687;SDS011;11511;51.514;7.080;2022-11-11T16:20:01;11.13;;;4.38;;
22687;SDS011;11511;51.514;7.080;2022-11-11T16:22:46;9.55;;;4.38;;
22687;SDS011;11511;51.514;7.080;2022-11-11T16:25:35;7.75;;;5.18;;
22687;SDS011;11511;51.514;7.080;2022-11-11T16:28:21;9.65;;;5.65;;
22687;SDS011;11511;51.514;7.080;2022-11-11T16:37:10;14.38;;;7.20;;
22687;SDS011;11511;51.514;7.080;2022-11-11T16:40:19;11.25;;;6.88;;
22687;SDS011;11511;51.514;7.080;2022-11-11T16:43:19;14.45;;;6.45;;
22687;SDS011;11511;51.514;7.080;2022-11-11T16:46:07;11.65;;;6.55;;
22687;SDS011;11511;51.514;7.080;2022-11-11T16:48:55;10.85;;;5.70;;
22687;SDS011;11511;51.514;7.080;2022-11-11T16:51:45;11.45;;;6.10;;
22687;SDS011;11511;51.514;7.080;2022-11-11T16:54:32;10.18;;;5.88;;
22687;SDS011;11511;51.514;7.080;2022-11-11T16:57:22;11.52;;;6.30;;
22687;SDS011;11511;51.514;7.080;2022-11-11T17:00:11;13.13;;;6.50;;
22687;SDS011;11511;51.514;7.080;2022-11-11T17:03:17;10.07;;;6.25;;
22687;SDS011;11511;51.514;7.080;2022-11-11T17:06:04;12.60;;;6.80;;
22687;SDS011;11511;51.514;7.080;2022-11-11T17:08:53;12.55;;;6.93;;
22687;SDS011;11511;51.514;7.080;2022-11-11T17:14:23;10.80;;;7.22;;
22687;SDS011;11511;51.514;7.080;2022-11-11T17:17:09;9.70;;;6.55;;
22687;SDS011;11511;51.514;7.080;2022-11-11T17:19:59;16.02;;;7.50;;
22687;SDS011;11511;51.514;7.080;2022-11-11T17:22:45;12.68;;;7.25;;
22687;SDS011;11511;51.514;7.080;2022-11-11T17:25:40;13.40;;;7.00;;
22687;SDS011;11511;51.514;7.080;2022-11-11T17:28:25;17.30;;;7.10;;
22687;SDS011;11511;51.514;7.080;2022-11-11T17:31:11;18.23;;;8.00;;
22687;SDS011;11511;51.514;7.080;2022-11-11T17:33:56;13.15;;;7.30;;
22687;SDS011;11511;51.514;7.080;2022-11-11T17:36:40;15.05;;;7.47;;
22687;SDS011;11511;51.514;7.080;2022-11-11T17:39:24;17.40;;;7.72;;
22687;SDS011;11511;51.514;7.080;2022-11-11T17:42:09;14.83;;;7.67;;
22687;SDS011;11511;51.514;7.080;2022-11-11T17:44:54;16.23;;;7.53;;
22687;SDS011;11511;51.514;7.080;2022-11-11T17:47:38;14.98;;;8.02;;
22687;SDS011;11511;51.514;7.080;2022-11-11T17:50:22;15.32;;;7.45;;
22687;SDS011;11511;51.514;7.080;2022-11-11T17:53:06;15.13;;;7.80;;
22687;SDS011;11511;51.514;7.080;2022-11-11T17:55:51;14.57;;;8.38;;
22687;SDS011;11511;51.514;7.080;2022-11-11T17:58:36;14.53;;;9.00;;
22687;SDS011;11511;51.514;7.080;2022-11-11T18:01:20;13.77;;;8.57;;
22687;SDS011;11511;51.514;7.080;2022-11-11T18:06:50;17.40;;;9.75;;
22687;SDS011;11511;51.514;7.080;2022-11-11T18:09:35;15.27;;;9.00;;
22687;SDS011;11511;51.514;7.080;2022-11-11T18:12:19;18.50;;;9.32;;
22687;SDS011;11511;51.514;7.080;2022-11-11T18:15:04;20.80;;;9.90;;
22687;SDS011;11511;51.514;7.080;2022-11-11T18:17:49;16.05;;;10.05;;
22687;SDS011;11511;51.514;7.080;2022-11-11T18:20:33;15.10;;;9.77;;
22687;SDS011;11511;51.514;7.080;2022-11-11T18:23:17;15.60;;;10.10;;
22687;SDS011;11511;51.514;7.080;2022-11-11T18:26:02;16.48;;;10.23;;
22687;SDS011;11511;51.514;7.080;2022-11-11T18:28:47;18.33;;;10.65;;
22687;SDS011;11511;51.514;7.080;2022-11-11T18:31:32;18.30;;;10.52;;
22687;SDS011;11511;51.514;7.080;2022-11-11T18:34:17;21.65;;;11.32;;
22687;SDS011;11511;51.514;7.080;2022-11-11T18:37:02;19.67;;;11.45;;
22687;SDS011;11511;51.514;7.080;2022-11-11T18:39:47;19.33;;;11.73;;
22687;SDS011;11511;51.514;7.080;2022-11-11T18:42:31;20.77;;;12.15;;
22687;SDS011;11511;51.514;7.080;2022-11-11T18:45:16;18.40;;;12.13;;
22687;SDS011;11511;51.514;7.080;2022-11-11T18:48:00;22.65;;;12.07;;
22687;SDS011;11511;51.514;7.080;2022-11-11T18:50:51;21.45;;;11.38;;
22687;SDS011;11511;51.514;7.080;2022-11-11T18:53:37;19.73;;;11.82;;
22687;SDS011;11511;51.514;7.080;2022-11-11T18:56:23;19.55;;;11.43;;
22687;SDS011;11511;51.514;7.080;2022-11-11T18:59:09;19.98;;;12.60;;
22687;SDS011;11511;51.514;7.080;2022-11-11T19:01:53;20.05;;;12.32;;
22687;SDS011;11511;51.514;7.080;2022-11-11T19:04:37;22.27;;;13.03;;
22687;SDS011;11511;51.514;7.080;2022-11-11T19:07:22;19.70;;;12.50;;
22687;SDS011;11511;51.514;7.080;2022-11-11T19:10:06;23.00;;;13.20;;
22687;SDS011;11511;51.514;7.080;2022-11-11T19:12:52;23.50;;;12.70;;
22687;SDS011;11511;51.514;7.080;2022-11-11T19:15:36;22.45;;;13.18;;